Time;durP1;ratioP1;P1;durP2;ratioP2;P2;SDS_P1;SDS_P2;PMS_P1;PMS_P2;Temp;Humidity;BMP_temperature;BMP_pressure;BME280_temperature;BME280_humidity;BME280_pressure;Samples;Min_cycle;Max_cycle;Signal;HPM_P1;HPM_P2
2021/12/04 00:01:26;;;;;;;6.32;5.35;;;;;;;2.17;100.00;95495.06;5068028;28;20075;-50
2021/12/04 00:03:55;;;;;;;6.15;5.28;;;;;;;1.79;100.00;95474.56;5065649;28;20064;-51
2021/12/04 00:06:26;;;;;;;5.80;5.05;;;;;;;2.13;100.00;95468.47;5065445;28;20037;-47
2021/12/04 00:09:00;;;;;;;5.35;4.72;;;;;;;1.98;100.00;95459.22;5064463;28;20060;-47
2021/12/04 00:11:30;;;;;;;4.95;4.40;;;;;;;1.88;100.00;95450.47;5065905;28;20200;-45
2021/12/04 00:13:58;;;;;;;5.10;4.50;;;;;;;1.98;100.00;95435.00;5072782;28;20076;-48
2021/12/04 00:16:27;;;;;;;7.65;4.80;;;;;;;1.75;100.00;95418.56;5069377;28;20064;-47
2021/12/04 00:18:55;;;;;;;6.47;4.90;;;;;;;2.32;100.00;95409.81;5064543;28;20482;-49
2021/12/04 00:21:24;;;;;;;5.70;4.35;;;;;;;2.33;100.00;95411.47;5066327;28;20075;-47
2021/12/04 00:23:52;;;;;;;5.55;5.05;;;;;;;2.26;100.00;95421.53;5066956;28;20071;-51
2021/12/04 00:26:21;;;;;;;6.07;5.00;;;;;;;2.07;100.00;95427.34;5061618;28;20098;-52
2021/12/04 00:28:50;;;;;;;7.93;5.22;;;;;;;2.17;100.00;95408.41;5068478;28;20544;-48
2021/12/04 00:31:19;;;;;;;5.18;4.63;;;;;;;2.08;100.00;95402.97;5063616;28;20068;-47
2021/12/04 00:33:48;;;;;;;5.75;4.63;;;;;;;1.99;100.00;95390.69;5067336;28;20071;-46
2021/12/04 00:36:26;;;;;;;7.65;4.65;;;;;;;2.13;100.00;95385.25;5067200;28;20485;-46
2021/12/04 00:50:00;;;;;;;4.75;4.25;;;;;;;1.24;100.00;95360.06;5062251;28;20091;-47
2021/12/04 00:52:28;;;;;;;4.93;4.20;;;;;;;2.21;100.00;95357.84;5055270;28;20075;-47
2021/12/04 00:55:01;;;;;;;5.53;4.38;;;;;;;2.32;100.00;95356.03;5060830;28;20068;-47
2021/12/04 00:57:29;;;;;;;5.32;4.15;;;;;;;2.55;100.00;95351.59;5061334;28;20459;-51
2021/12/04 00:59:59;;;;;;;6.05;4.32;;;;;;;2.77;100.00;95344.66;5064203;28;20037;-48
2021/12/04 01:02:28;;;;;;;6.78;4.78;;;;;;;2.29;100.00;95334.63;5065830;28;20084;-52
2021/12/04 01:04:56;;;;;;;5.53;4.13;;;;;;;2.86;100.00;95343.91;5068233;28;20087;-45
2021/12/04 01:07:25;;;;;;;7.10;4.57;;;;;;;2.89;100.00;95342.81;5060619;28;20078;-47
2021/12/04 01:09:54;;;;;;;5.47;4.80;;;;;;;2.93;100.00;95346.84;5068715;28;20142;-50
2021/12/04 01:12:22;;;;;;;6.93;4.25;;;;;;;2.93;100.00;95329.44;5066724;28;20083;-47
2021/12/04 01:14:51;;;;;;;4.30;3.90;;;;;;;2.11;100.00;95332.53;5066045;28;20463;-49
2021/12/04 01:17:21;;;;;;;4.43;3.88;;;;;;;2.69;100.00;95331.44;5064415;28;20513;-47
2021/12/04 01:19:49;;;;;;;4.60;3.97;;;;;;;3.20;100.00;95336.78;5067046;28;20653;-46
2021/12/04 01:22:20;;;;;;;5.15;4.32;;;;;;;3.30;100.00;95329.84;5064828;28;20546;-46
2021/12/04 01:24:48;;;;;;;6.03;4.00;;;;;;;3.11;100.00;95336.69;5066196;28;20554;-46
2021/12/04 01:27:17;;;;;;;4.30;3.90;;;;;;;2.20;100.00;95330.16;5064794;28;20067;-50
2021/12/04 01:29:45;;;;;;;4.40;4.00;;;;;;;2.70;100.00;95338.31;5062727;28;20076;-49
2021/12/04 01:32:13;;;;;;;4.65;3.88;;;;;;;2.98;100.00;95337.69;5065159;28;20709;-46
2021/12/04 01:34:43;;;;;;;4.68;3.92;;;;;;;2.75;100.00;95334.38;5068121;28;20475;-53
2021/12/04 01:37:12;;;;;;;5.28;4.30;;;;;;;2.83;100.00;95339.78;5064982;28;20060;-53
2021/12/04 01:39:40;;;;;;;5.00;4.00;;;;;;;2.84;100.00;95338.00;5062079;28;20674;-52
2021/12/04 01:42:09;;;;;;;6.00;5.10;;;;;;;2.74;100.00;95324.09;5065191;28;20469;-49
2021/12/04 01:44:37;;;;;;;4.43;3.70;;;;;;;2.72;100.00;95324.22;5066433;28;20064;-52
2021/12/04 01:47:13;;;;;;;4.68;4.13;;;;;;;2.86;100.00;95312.69;5066434;28;20095;-52
2021/12/04 01:49:43;;;;;;;4.97;3.90;;;;;;;3.05;100.00;95304.97;5062776;28;21100;-50
2021/12/04 01:52:11;;;;;;;5.50;4.30;;;;;;;2.60;100.00;95312.19;5070414;28;20064;-48
2021/12/04 01:54:40;;;;;;;4.60;3.97;;;;;;;2.76;100.00;95322.19;5065797;28;20553;-54
2021/12/04 01:57:08;;;;;;;7.18;4.13;;;;;;;2.51;100.00;95316.38;5062206;28;20155;-50
2021/12/04 01:59:37;;;;;;;3.83;3.42;;;;;;;2.74;100.00;95324.09;5062953;28;20068;-52
2021/12/04 02:02:05;;;;;;;3.70;3.40;;;;;;;3.05;100.00;95318.00;5067605;28;20483;-48
2021/12/04 02:04:34;;;;;;;3.40;3.10;;;;;;;3.13;100.00;95312.16;5065722;28;20063;-48
2021/12/04 02:07:04;;;;;;;3.75;3.45;;;;;;;3.15;100.00;95304.22;5068277;28;20058;-52
2021/12/04 02:09:34;;;;;;;3.78;3.47;;;;;;;3.65;100.00;95288.69;5067883;28;20635;-46
2021/12/04 02:12:05;;;;;;;4.00;3.60;;;;;;;2.95;100.00;95282.44;5065516;28;20467;-52
2021/12/04 02:14:33;;;;;;;3.35;3.10;;;;;;;2.51;100.00;95266.09;5065472;28;20632;-47
2021/12/04 02:17:02;;;;;;;3.50;3.20;;;;;;;3.14;100.00;95279.97;5065486;28;20457;-55
2021/12/04 02:19:31;;;;;;;3.40;3.10;;;;;;;3.41;100.00;95274.22;5064814;28;20060;-47
2021/12/04 02:22:01;;;;;;;3.15;2.90;;;;;;;2.92;100.00;95267.88;5065058;28;20072;-53
2021/12/04 02:24:30;;;;;;;3.20;3.00;;;;;;;3.42;100.00;95262.84;5064638;28;20100;-51
2021/12/04 02:26:58;;;;;;;3.92;3.15;;;;;;;2.81;100.00;95249.75;5065378;28;20072;-53
2021/12/04 02:29:27;;;;;;;4.15;3.03;;;;;;;3.13;100.00;95248.81;5061152;28;20080;-55
2021/12/04 02:31:57;;;;;;;3.30;3.00;;;;;;;3.70;100.00;95243.03;5062683;28;20080;-48
2021/12/04 02:34:26;;;;;;;;;;;;;;;3.23;100.00;95234.06;5061191;28;20666;-49
2021/12/04 02:36:55;;;;;;;3.58;3.22;;;;;;;3.01;100.00;95217.66;5065442;28;19963;-50
2021/12/04 02:39:27;;;;;;;3.50;3.20;;;;;;;3.53;100.00;95201.97;5064527;28;20510;-49
2021/12/04 02:41:56;;;;;;;3.55;3.20;;;;;;;3.12;100.00;95211.53;5063894;28;20064;-52
2021/12/04 02:44:32;;;;;;;3.63;3.25;;;;;;;3.32;100.00;95209.84;5060218;28;20294;-49
2021/12/04 02:47:00;;;;;;;3.75;3.45;;;;;;;3.49;100.00;95206.63;5063940;28;20080;-51
2021/12/04 02:49:29;;;;;;;3.42;3.13;;;;;;;2.92;100.00;95205.41;5062912;28;20446;-49
2021/12/04 02:52:01;;;;;;;3.63;3.20;;;;;;;3.40;100.00;95199.59;5063717;28;20565;-50
2021/12/04 02:54:32;;;;;;;3.60;3.30;;;;;;;3.54;100.00;95208.81;5060258;28;20072;-53
2021/12/04 02:57:00;;;;;;;4.20;3.55;;;;;;;3.95;100.00;95205.22;5061288;28;20082;-49
2021/12/04 02:59:29;;;;;;;3.60;3.30;;;;;;;3.96;100.00;95204.28;5060220;28;20067;-51
2021/12/04 03:01:58;;;;;;;4.53;3.42;;;;;;;3.98;100.00;95194.53;5069921;28;20082;-51
2021/12/04 03:04:27;;;;;;;3.53;3.22;;;;;;;4.14;100.00;95196.59;5068294;28;20063;-51
2021/12/04 03:06:56;;;;;;;4.70;3.55;;;;;;;3.76;100.00;95200.00;5063428;28;20294;-50
2021/12/04 03:09:24;;;;;;;5.32;3.65;;;;;;;3.88;100.00;95200.69;5063703;28;20075;-53
2021/12/04 03:11:54;;;;;;;4.38;3.53;;;;;;;3.88;100.00;95195.47;5063980;28;20078;-49
2021/12/04 03:14:22;;;;;;;3.40;3.10;;;;;;;3.69;100.00;95193.66;5064410;28;20072;-50
2021/12/04 03:16:51;;;;;;;3.78;3.47;;;;;;;3.57;100.00;95190.31;5067110;28;20498;-51
2021/12/04 03:19:19;;;;;;;4.28;3.38;;;;;;;3.29;100.00;95205.72;5063725;28;20127;-54
2021/12/04 03:21:47;;;;;;;3.67;3.20;;;;;;;3.49;100.00;95200.59;5063796;28;20060;-48
2021/12/04 03:24:18;;;;;;;3.65;3.35;;;;;;;3.16;100.00;95191.28;5063671;28;20079;-51
2021/12/04 03:26:49;;;;;;;4.70;3.80;;;;;;;3.62;100.00;95193.38;5065097;28;20084;-48
2021/12/04 03:29:22;;;;;;;4.05;3.58;;;;;;;3.60;100.00;95192.66;5062379;28;20073;-48
2021/12/04 03:40:51;;;;;;;3.50;3.20;;;;;;;3.17;100.00;95162.50;5058539;28;20061;-52
2021/12/04 03:43:19;;;;;;;3.60;3.30;;;;;;;3.70;100.00;95153.59;5058985;28;20072;-54
2021/12/04 03:45:54;;;;;;;3.30;3.00;;;;;;;3.77;100.00;95150.31;5064222;28;20519;-47
2021/12/04 03:48:49;;;;;;;3.08;2.78;;;;;;;4.00;100.00;95145.66;5063594;28;20072;-50
2021/12/04 03:51:19;;;;;;;3.40;2.90;;;;;;;3.64;100.00;95146.31;5056560;28;20079;-49
2021/12/04 03:53:49;;;;;;;4.18;3.00;;;;;;;3.95;100.00;95144.41;5063850;28;20068;-49
2021/12/04 03:56:21;;;;;;;2.97;2.78;;;;;;;3.19;100.00;95141.53;5061731;28;20501;-52
2021/12/04 03:58:49;;;;;;;3.53;2.92;;;;;;;3.74;100.00;95132.31;5069691;28;20094;-50
2021/12/04 04:01:19;;;;;;;3.40;2.88;;;;;;;3.65;100.00;95138.38;5062640;28;20060;-49
2021/12/04 04:03:48;;;;;;;3.33;3.03;;;;;;;3.65;100.00;95121.88;5060613;28;20076;-46
2021/12/04 04:06:17;;;;;;;3.30;2.88;;;;;;;3.71;100.00;95109.13;5063411;28;20048;-49
2021/12/04 04:08:46;;;;;;;5.18;2.90;;;;;;;3.20;100.00;95107.56;5063691;28;20076;-48
2021/12/04 04:11:14;;;;;;;3.20;2.90;;;;;;;3.12;100.00;95101.34;5063338;28;20088;-49
2021/12/04 04:13:44;;;;;;;4.07;3.03;;;;;;;3.76;100.00;95098.31;5060677;28;20071;-50
2021/12/04 04:16:13;;;;;;;3.40;3.10;;;;;;;3.77;100.00;95100.78;5063365;28;20072;-50
2021/12/04 04:18:43;;;;;;;3.85;2.90;;;;;;;3.89;100.00;95092.81;5064063;28;20060;-49
2021/12/04 04:21:12;;;;;;;3.57;2.77;;;;;;;3.81;100.00;95098.72;5061165;28;20069;-49
2021/12/04 04:23:41;;;;;;;3.92;3.38;;;;;;;3.54;100.00;95100.22;5061177;28;20478;-51
2021/12/04 04:26:09;;;;;;;3.40;3.10;;;;;;;3.80;100.00;95086.63;5067081;28;20091;-49
2021/12/04 04:28:38;;;;;;;3.50;3.20;;;;;;;3.90;100.00;95084.03;5063953;28;20470;-47
2021/12/04 04:31:08;;;;;;;3.50;3.20;;;;;;;3.79;100.00;95071.97;5066973;28;20075;-51
2021/12/04 04:33:40;;;;;;;;;;;;;;;3.66;100.00;95069.63;5067661;28;20064;-48
2021/12/04 04:36:21;;;;;;;3.50;3.20;;;;;;;2.48;100.00;95073.81;5062906;28;19952;-48
2021/12/04 04:39:01;;;;;;;3.47;3.17;;;;;;;3.18;100.00;95072.16;5067866;28;20067;-48
2021/12/04 04:58:19;;;;;;;3.13;2.92;;;;;;;3.31;100.00;95055.34;5067235;28;20061;-54
2021/12/04 05:01:01;;;;;;;3.17;2.80;;;;;;;3.40;100.00;95051.06;5064648;28;20072;-46
2021/12/04 05:11:59;;;;;;;2.97;2.65;;;;;;;3.26;100.00;95039.25;5065930;28;20040;-48
2021/12/04 05:14:27;;;;;;;3.30;2.80;;;;;;;3.25;100.00;95036.81;5066323;28;20083;-51
2021/12/04 05:17:03;;;;;;;3.00;2.80;;;;;;;3.20;100.00;95036.38;5066653;28;20121;-49
2021/12/04 05:19:39;;;;;;;2.70;2.50;;;;;;;3.29;100.00;95027.75;5060579;28;20106;-51
2021/12/04 05:22:10;;;;;;;2.90;2.70;;;;;;;3.24;100.00;95029.97;5061618;28;20064;-53
2021/12/04 05:24:41;;;;;;;3.25;2.95;;;;;;;3.03;100.00;95027.47;5063236;28;20075;-46
2021/12/04 05:27:11;;;;;;;3.38;3.08;;;;;;;2.98;100.00;95019.22;5062354;28;20087;-50
2021/12/04 05:29:41;;;;;;;3.72;3.15;;;;;;;3.50;100.00;95017.22;5065883;28;20075;-51
2021/12/04 05:32:11;;;;;;;4.13;3.17;;;;;;;3.68;100.00;95001.69;5063067;28;20569;-48
2021/12/04 05:34:39;;;;;;;5.05;3.17;;;;;;;3.86;100.00;94999.25;5056009;28;21569;-48
2021/12/04 05:37:08;;;;;;;3.40;3.10;;;;;;;3.97;100.00;94993.84;5059729;28;20072;-48
2021/12/04 05:39:36;;;;;;;4.50;3.13;;;;;;;3.78;100.00;94994.69;5059786;28;20068;-49
2021/12/04 05:42:06;;;;;;;3.55;3.08;;;;;;;3.85;100.00;94987.13;5059925;28;20087;-49
2021/12/04 05:44:35;;;;;;;4.97;3.20;;;;;;;3.90;100.00;94984.97;5062491;28;20074;-50
2021/12/04 05:47:08;;;;;;;3.60;3.30;;;;;;;3.95;100.00;94991.38;5060071;28;20079;-46
2021/12/04 05:49:48;;;;;;;4.45;3.80;;;;;;;4.16;100.00;94982.53;5059294;28;21441;-50
2021/12/04 05:52:22;;;;;;;5.00;3.67;;;;;;;3.64;100.00;94988.13;5065002;28;20087;-48
2021/12/04 05:55:11;;;;;;;3.92;3.20;;;;;;;3.26;100.00;94976.75;5069123;28;20103;-52
2021/12/04 05:57:41;;;;;;;3.63;3.15;;;;;;;3.84;100.00;94967.25;5065712;28;20075;-45
2021/12/04 06:00:15;;;;;;;3.72;3.33;;;;;;;3.37;100.00;94978.41;5064143;28;20581;-50
2021/12/04 06:02:43;;;;;;;6.22;3.50;;;;;;;3.09;100.00;94973.03;5066210;28;20415;-46
2021/12/04 06:05:13;;;;;;;3.40;3.10;;;;;;;3.64;100.00;94964.66;5065377;28;20496;-49
2021/12/04 06:07:41;;;;;;;4.43;3.05;;;;;;;4.07;100.00;94971.19;5068150;28;20529;-49
2021/12/04 06:10:10;;;;;;;3.67;3.33;;;;;;;4.21;100.00;94970.72;5065093;28;20072;-48
2021/12/04 06:12:38;;;;;;;3.70;3.03;;;;;;;4.39;100.00;94967.38;5065415;28;20094;-53
2021/12/04 06:15:09;;;;;;;5.70;4.60;;;;;;;3.55;100.00;94966.34;5065264;28;20068;-52
2021/12/04 06:17:38;;;;;;;4.13;3.70;;;;;;;4.19;100.00;94957.00;5059793;28;20076;-50
2021/12/04 06:22:53;;;;;;;4.13;3.40;;;;;;;3.85;100.00;94955.84;5061200;28;20482;-50
2021/12/04 06:25:24;;;;;;;4.05;3.42;;;;;;;3.52;100.00;94953.59;5063041;28;20491;-49
2021/12/04 06:27:53;;;;;;;3.72;3.42;;;;;;;3.74;100.00;94956.84;5063578;28;20518;-46
2021/12/04 06:30:24;;;;;;;3.90;3.60;;;;;;;3.39;100.00;94955.63;5062773;28;20522;-47
2021/12/04 06:32:53;;;;;;;4.00;3.60;;;;;;;4.01;100.00;94950.88;5063486;28;20065;-47
2021/12/04 06:35:24;;;;;;;4.85;3.67;;;;;;;4.21;100.00;94947.25;5064429;28;20076;-52
2021/12/04 06:37:52;;;;;;;4.57;4.18;;;;;;;4.23;100.00;94941.88;5067346;28;20087;-51
2021/12/04 06:40:25;;;;;;;4.88;3.72;;;;;;;3.32;100.00;94938.91;5061227;28;20075;-48
2021/12/04 06:42:55;;;;;;;3.67;3.38;;;;;;;3.90;100.00;94938.03;5062902;28;20067;-48
2021/12/04 06:45:26;;;;;;;3.70;3.40;;;;;;;4.26;100.00;94936.38;5065209;28;20063;-47
2021/12/04 06:47:56;;;;;;;;;;;;;;;4.14;100.00;94945.38;5066982;28;20079;-48
2021/12/04 06:50:37;;;;;;;20.33;12.32;;;;;;;4.36;100.00;94947.59;5063738;28;19962;-49
2021/12/04 06:53:13;;;;;;;10.75;8.05;;;;;;;4.33;100.00;94934.84;5067298;28;20190;-47
2021/12/04 06:55:45;;;;;;;8.13;7.32;;;;;;;4.81;100.00;94940.78;5061866;28;20050;-45
2021/12/04 06:58:14;;;;;;;6.65;4.10;;;;;;;3.98;100.00;94938.94;5058359;28;20056;-47
2021/12/04 07:00:44;;;;;;;4.35;3.95;;;;;;;3.97;100.00;94923.44;5061190;28;20090;-47
2021/12/04 07:03:16;;;;;;;5.25;4.43;;;;;;;3.81;100.00;94937.06;5064197;28;20099;-47
2021/12/04 07:05:46;;;;;;;4.60;4.20;;;;;;;4.45;100.00;94932.88;5064024;28;20074;-46
2021/12/04 07:08:15;;;;;;;6.53;4.80;;;;;;;4.59;100.00;94928.97;5065148;28;20079;-47
2021/12/04 07:10:43;;;;;;;6.53;5.68;;;;;;;4.73;100.00;94937.13;5066046;28;20533;-48
2021/12/04 07:13:12;;;;;;;5.93;4.50;;;;;;;4.57;100.00;94925.66;5063989;28;20455;-50
2021/12/04 07:15:43;;;;;;;5.18;4.20;;;;;;;4.76;100.00;94917.72;5064685;28;20526;-50
2021/12/04 07:18:13;;;;;;;4.88;4.43;;;;;;;4.18;100.00;94908.41;5052574;28;20748;-48
2021/12/04 07:20:41;;;;;;;5.03;4.50;;;;;;;4.14;100.00;94907.06;5059998;28;20064;-50
2021/12/04 07:23:10;;;;;;;5.45;4.95;;;;;;;4.48;100.00;94899.47;5066642;28;20118;-52
2021/12/04 07:25:38;;;;;;;5.75;4.35;;;;;;;4.58;100.00;94896.81;5062880;28;20480;-53
2021/12/04 07:28:06;;;;;;;5.00;4.50;;;;;;;4.84;100.00;94896.09;5063898;28;20150;-48
2021/12/04 07:30:35;;;;;;;6.68;5.35;;;;;;;4.91;100.00;94891.91;5063617;28;20083;-46
2021/12/04 07:33:03;;;;;;;6.43;4.45;;;;;;;5.20;100.00;94892.53;5058038;28;20079;-46
2021/12/04 07:35:34;;;;;;;4.00;3.60;;;;;;;5.10;100.00;94890.97;5064916;28;20087;-51
2021/12/04 07:38:02;;;;;;;;;;;;;;;5.34;100.00;94888.56;5056746;28;20041;-51
2021/12/04 07:40:31;;;;;;;4.50;4.00;;;;;;;4.90;100.00;94891.09;5063733;28;19943;-51
2021/12/04 07:42:59;;;;;;;4.30;3.72;;;;;;;5.47;100.00;94877.69;5062726;28;20589;-49
2021/12/04 07:45:28;;;;;;;5.00;4.50;;;;;;;5.17;100.00;94878.94;5065661;28;20473;-53
2021/12/04 07:47:56;;;;;;;4.97;4.20;;;;;;;4.79;100.00;94880.06;5061975;28;20072;-50
2021/12/04 07:50:25;;;;;;;3.75;3.35;;;;;;;5.61;100.00;94864.09;5052027;28;20072;-54
2021/12/04 07:52:55;;;;;;;5.43;3.30;;;;;;;4.82;100.00;94874.53;5059304;28;20080;-51
2021/12/04 07:55:24;;;;;;;3.50;3.20;;;;;;;5.07;100.00;94865.13;5059636;28;20064;-53
2021/12/04 07:57:53;;;;;;;4.00;3.60;;;;;;;5.48;100.00;94861.06;5053890;28;20061;-51
2021/12/04 08:00:22;;;;;;;3.70;3.40;;;;;;;4.85;100.00;94867.25;5055298;28;20587;-54
2021/12/04 08:02:51;;;;;;;3.30;3.00;;;;;;;5.40;100.00;94859.22;5059673;28;20064;-52
2021/12/04 08:05:20;;;;;;;3.88;3.47;;;;;;;5.62;100.00;94851.84;5057290;28;20084;-52
2021/12/04 08:07:50;;;;;;;3.65;2.80;;;;;;;5.47;100.00;94859.38;5062259;28;20661;-47
2021/12/04 08:10:20;;;;;;;3.15;2.90;;;;;;;5.87;100.00;94858.84;5058967;28;20064;-54
2021/12/04 08:12:49;;;;;;;;;;;;;;;5.32;100.00;94856.50;5060691;28;20514;-52
2021/12/04 08:15:18;;;;;;;3.17;2.88;;;;;;;5.81;100.00;94854.22;5057334;28;19956;-47
2021/12/04 08:17:47;;;;;;;3.53;3.22;;;;;;;5.62;100.00;94851.84;5059385;28;20073;-48
2021/12/04 08:20:17;;;;;;;3.75;3.20;;;;;;;5.37;100.00;94851.66;5061050;28;20469;-49
2021/12/04 08:22:46;;;;;;;;;;;;;;;5.81;100.00;94848.97;5064768;28;20086;-49
2021/12/04 08:25:17;;;;;;;3.75;3.45;;;;;;;5.43;100.00;94851.03;5061448;28;19956;-51
2021/12/04 08:27:47;;;;;;;3.80;3.40;;;;;;;6.15;100.00;94858.66;5060268;28;20080;-47
2021/12/04 08:30:18;;;;;;;5.47;3.97;;;;;;;5.80;100.00;94859.63;5058336;28;20654;-52
2021/12/04 08:32:46;;;;;;;3.85;3.20;;;;;;;6.07;100.00;94850.81;5059576;28;20597;-51
2021/12/04 08:35:18;;;;;;;3.78;3.00;;;;;;;6.23;100.00;94852.66;5061719;28;20084;-49
2021/12/04 08:37:47;;;;;;;3.78;3.35;;;;;;;6.34;100.00;94850.59;5065159;28;20622;-52
2021/12/04 08:40:16;;;;;;;3.75;2.85;;;;;;;6.19;100.00;94852.13;5066234;28;20521;-53
2021/12/04 08:42:47;;;;;;;3.80;3.25;;;;;;;6.65;100.00;94845.59;5055543;28;20071;-52
2021/12/04 08:45:17;;;;;;;3.85;3.10;;;;;;;6.23;100.00;94848.25;5055126;28;20065;-48
2021/12/04 08:47:46;;;;;;;3.80;3.25;;;;;;;6.53;100.00;94846.06;5063980;28;20068;-49
2021/12/04 08:50:17;;;;;;;3.30;3.00;;;;;;;5.86;100.00;94857.19;5062036;28;20079;-52
2021/12/04 08:52:46;;;;;;;5.00;3.20;;;;;;;6.38;100.00;94849.28;5067638;28;20099;-52
2021/12/04 08:55:15;;;;;;;3.53;3.05;;;;;;;6.68;100.00;94851.50;5061629;28;20065;-50
2021/12/04 08:57:45;;;;;;;3.87;3.30;;;;;;;5.89;100.00;94845.63;5058679;28;20075;-49
2021/12/04 09:00:18;;;;;;;4.93;3.08;;;;;;;6.57;100.00;94837.75;5054760;28;20462;-49
2021/12/04 09:02:48;;;;;;;3.70;3.00;;;;;;;6.74;100.00;94835.13;5055286;28;20095;-50
2021/12/04 09:05:18;;;;;;;3.50;3.20;;;;;;;5.74;100.00;94845.34;5062230;28;20068;-49
2021/12/04 09:07:47;;;;;;;4.28;3.17;;;;;;;5.90;100.00;94842.00;5058761;28;20076;-48
2021/12/04 09:10:16;;;;;;;5.97;3.25;;;;;;;5.94;100.00;94836.34;5057540;28;20075;-46
2021/12/04 09:12:47;;;;;;;5.85;3.22;;;;;;;6.13;100.00;94844.94;5059989;28;20041;-50
2021/12/04 09:15:23;;;;;;;4.00;3.20;;;;;;;5.84;100.00;94840.00;5058904;28;20081;-47
2021/12/04 09:17:52;;;;;;;3.58;3.17;;;;;;;6.54;100.00;94832.81;5061136;28;20076;-53
2021/12/04 09:20:20;;;;;;;3.83;3.10;;;;;;;6.32;100.00;94834.19;5054864;28;20068;-52
2021/12/04 09:22:51;;;;;;;3.55;2.90;;;;;;;6.62;100.00;94824.97;5062166;28;20043;-49
2021/12/04 09:25:23;;;;;;;3.40;3.10;;;;;;;6.84;100.00;94812.22;5059910;28;20071;-48
2021/12/04 09:28:12;;;;;;;3.20;2.90;;;;;;;6.45;100.00;94817.22;5060841;28;20064;-50
2021/12/04 09:36:48;;;;;;;6.68;3.72;;;;;;;6.42;100.00;94816.56;5057633;28;20083;-48
2021/12/04 10:01:56;;;;;;;5.35;3.33;;;;;;;7.73;100.00;94776.44;5052925;28;20529;-53
2021/12/04 10:04:52;;;;;;;5.47;3.45;;;;;;;7.65;100.00;94772.03;5062305;28;20599;-49
2021/12/04 10:13:22;;;;;;;7.22;3.60;;;;;;;7.32;100.00;94764.22;5057877;28;20075;-50
2021/12/04 10:16:08;;;;;;;7.03;3.75;;;;;;;7.68;100.00;94761.19;5058853;28;20075;-53
2021/12/04 10:32:36;;;;;;;4.85;3.45;;;;;;;8.21;100.00;94740.47;5065660;28;20079;-52
2021/12/04 10:35:10;;;;;;;4.57;2.88;;;;;;;7.94;100.00;94733.88;5064618;28;20182;-55
2021/12/04 10:37:47;;;;;;;4.28;2.92;;;;;;;8.02;100.00;94729.41;5064685;28;20095;-55
2021/12/04 10:40:16;;;;;;;4.45;2.90;;;;;;;8.62;100.00;94725.31;5064430;28;20522;-51
2021/12/04 10:42:49;;;;;;;3.38;2.80;;;;;;;8.77;100.00;94714.84;5063880;28;20072;-52
2021/12/04 10:45:19;;;;;;;5.18;3.15;;;;;;;8.33;100.00;94715.47;5061099;28;20068;-52
2021/12/04 10:47:52;;;;;;;5.15;3.00;;;;;;;7.69;100.00;94723.47;5062075;28;20037;-52
2021/12/04 10:50:29;;;;;;;5.38;2.90;;;;;;;7.79;100.00;94715.41;5060738;28;20090;-56
2021/12/04 10:52:58;;;;;;;3.88;2.78;;;;;;;7.34;100.00;94714.25;5064433;28;20083;-56
2021/12/04 10:55:31;;;;;;;3.72;3.00;;;;;;;7.22;100.00;94712.94;5063015;28;20056;-54
2021/12/04 11:01:03;;;;;;;3.83;3.22;;;;;;;7.88;100.00;94706.53;5064587;28;20072;-53
2021/12/04 11:40:22;;;;;;;4.47;4.07;;;;;;;8.13;100.00;94628.47;5043851;28;20072;-53
2021/12/04 11:42:54;;;;;;;;;;;;;;;8.00;100.00;94628.22;5067225;28;20072;-49
2021/12/04 11:45:27;;;;;;;8.82;4.13;;;;;;;7.35;100.00;94635.41;5068592;28;19975;-54
2021/12/04 11:47:58;;;;;;;5.68;3.50;;;;;;;7.03;100.00;94632.91;5064270;28;20333;-50
2021/12/04 11:50:29;;;;;;;6.18;3.53;;;;;;;6.98;100.00;94629.97;5063661;28;20049;-52
2021/12/04 11:52:59;;;;;;;5.72;3.35;;;;;;;7.04;100.00;94629.28;5069528;28;20075;-50
2021/12/04 11:55:33;;;;;;;4.18;3.45;;;;;;;6.89;100.00;94629.19;5068560;28;20071;-51
2021/12/04 11:58:02;;;;;;;6.53;3.55;;;;;;;6.84;100.00;94624.41;5066698;28;20633;-52
2021/12/04 12:00:32;;;;;;;6.38;3.60;;;;;;;6.97;100.00;94630.94;5067715;28;20110;-55
2021/12/04 12:03:09;;;;;;;5.13;3.38;;;;;;;6.98;100.00;94622.09;5068371;28;20063;-53
2021/12/04 12:05:44;;;;;;;4.50;3.47;;;;;;;6.80;100.00;94625.75;5066399;28;20064;-50
2021/12/04 12:08:24;;;;;;;5.00;4.18;;;;;;;6.71;100.00;94618.91;5064587;28;20087;-53
2021/12/04 12:10:57;;;;;;;28.73;19.63;;;;;;;6.78;100.00;94617.25;5066398;28;20068;-51
2021/12/04 12:13:34;;;;;;;49.10;28.42;;;;;;;7.34;100.00;94612.81;5064500;28;20057;-52
2021/12/04 12:16:08;;;;;;;10.77;8.80;;;;;;;7.22;100.00;94611.53;5068045;28;20071;-52
2021/12/04 12:18:49;;;;;;;14.95;12.05;;;;;;;7.70;100.00;94607.06;5063969;28;20064;-56
2021/12/04 12:21:22;;;;;;;79.25;52.17;;;;;;;7.65;100.00;94591.03;5066642;28;20449;-49
2021/12/04 12:27:11;;;;;;;92.90;64.53;;;;;;;7.68;100.00;94598.56;5065772;28;20841;-48
2021/12/04 12:32:42;;;;;;;54.65;29.75;;;;;;;6.89;100.00;94592.50;5065821;28;20048;-50
2021/12/04 12:38:06;;;;;;;137.35;90.80;;;;;;;8.23;100.00;94583.59;5067310;28;20485;-53
2021/12/04 12:40:34;;;;;;;127.05;81.07;;;;;;;7.73;100.00;94577.84;5067290;28;20067;-53
2021/12/04 12:43:14;;;;;;;47.42;33.95;;;;;;;8.03;100.00;94567.50;5067488;28;20064;-49
2021/12/04 12:45:53;;;;;;;77.43;57.45;;;;;;;7.90;100.00;94573.31;5066069;28;20069;-51
2021/12/04 12:48:21;;;;;;;68.05;57.72;;;;;;;7.68;100.00;94567.09;5066880;28;20071;-54
2021/12/04 12:50:52;;;;;;;53.22;43.00;;;;;;;7.99;100.00;94564.41;5061883;28;20076;-51
2021/12/04 12:53:22;;;;;;;20.02;13.65;;;;;;;8.50;100.00;94556.00;5067010;28;20080;-48
2021/12/04 12:55:53;;;;;;;12.32;9.23;;;;;;;8.89;100.00;94555.75;5069153;28;20119;-48
2021/12/04 12:58:26;;;;;;;6.20;5.18;;;;;;;8.96;100.00;94558.47;5065812;28;20068;-47
2021/12/04 13:12:49;;;;;;;11.70;8.90;;;;;;;10.01;100.00;94530.91;5053012;28;20068;-49
2021/12/04 13:15:35;;;;;;;10.30;8.45;;;;;;;10.48;100.00;94524.25;5062807;28;20448;-50
2021/12/04 13:18:11;;;;;;;13.57;8.77;;;;;;;10.50;100.00;94517.81;5065362;28;20068;-49
2021/12/04 13:20:40;;;;;;;10.18;6.80;;;;;;;10.35;100.00;94519.69;5058534;28;20075;-50
2021/12/04 13:23:10;;;;;;;10.90;5.95;;;;;;;10.98;100.00;94517.06;5070726;28;20047;-51
2021/12/04 13:25:39;;;;;;;6.30;5.68;;;;;;;11.15;100.00;94506.00;5060082;28;20528;-52
2021/12/04 13:30:46;;;;;;;1.88;1.77;;;;;;;9.78;100.00;94524.03;5061776;28;20068;-50
2021/12/04 13:33:15;;;;;;;1.88;1.70;;;;;;;9.86;100.00;94520.47;5063416;28;20053;-48
2021/12/04 13:35:46;;;;;;;1.73;1.63;;;;;;;9.68;100.00;94519.06;5063072;28;20079;-54
2021/12/04 13:38:17;;;;;;;4.07;1.90;;;;;;;9.91;100.00;94512.78;5057938;28;20080;-52
2021/12/04 13:40:48;;;;;;;2.95;1.70;;;;;;;9.95;100.00;94514.88;5061896;28;20111;-51
2021/12/04 13:43:18;;;;;;;1.88;1.45;;;;;;;9.76;100.00;94518.13;5061407;28;20083;-51
2021/12/04 13:45:56;;;;;;;2.78;1.50;;;;;;;10.07;100.00;94511.75;5063217;28;20060;-49
2021/12/04 13:48:25;;;;;;;2.75;1.70;;;;;;;10.42;100.00;94510.03;5058880;28;20072;-52
2021/12/04 13:50:55;;;;;;;1.55;1.45;;;;;;;10.74;100.00;94510.47;5061902;28;20064;-50
2021/12/04 13:53:26;;;;;;;1.63;1.52;;;;;;;9.99;100.00;94502.16;5064151;28;20735;-48
2021/12/04 13:55:57;;;;;;;1.60;1.50;;;;;;;10.28;100.00;94503.84;5067121;28;20549;-49
2021/12/04 13:58:27;;;;;;;1.80;1.70;;;;;;;10.34;100.00;94500.44;5060550;28;20510;-52
2021/12/04 14:01:00;;;;;;;1.60;1.50;;;;;;;10.04;100.00;94502.38;5063131;28;20529;-52
2021/12/04 14:03:32;;;;;;;2.30;1.60;;;;;;;9.92;100.00;94493.38;5063553;28;20094;-47
2021/12/04 14:06:00;;;;;;;2.03;1.40;;;;;;;9.78;100.00;94496.91;5063998;28;20083;-51
2021/12/04 14:08:29;;;;;;;2.22;1.60;;;;;;;9.76;100.00;94494.44;5062500;28;20539;-48
2021/12/04 14:10:58;;;;;;;2.17;1.95;;;;;;;9.80;100.00;94497.50;5065122;28;20088;-51
2021/12/04 14:13:27;;;;;;;2.78;1.80;;;;;;;10.02;100.00;94491.25;5060491;28;20060;-47
2021/12/04 14:15:55;;;;;;;1.50;1.40;;;;;;;10.26;100.00;94491.88;5065497;28;20060;-49
2021/12/04 14:18:30;;;;;;;1.83;1.65;;;;;;;10.07;100.00;94493.31;5069927;28;20079;-51
2021/12/04 14:21:01;;;;;;;1.52;1.42;;;;;;;10.08;100.00;94508.94;5066568;28;20518;-47
2021/12/04 14:23:30;;;;;;;1.40;1.30;;;;;;;10.05;100.00;94508.47;5064031;28;20796;-48
2021/12/04 14:26:03;;;;;;;1.40;1.30;;;;;;;9.85;100.00;94501.22;5063982;28;20067;-51
2021/12/04 14:28:35;;;;;;;2.42;1.30;;;;;;;9.70;100.00;94506.56;5065300;28;20075;-52
2021/12/04 14:31:04;;;;;;;1.27;1.20;;;;;;;9.58;100.00;94509.84;5064105;28;20098;-47